Time;durP1;ratioP1;P1;durP2;ratioP2;P2;SDS_P1;SDS_P2;PMS_P1;PMS_P2;Temp;Humidity;BMP_temperature;BMP_pressure;BME280_temperature;BME280_humidity;BME280_pressure;Samples;Min_cycle;Max_cycle;Signal;HPM_P1;HPM_P2
2022/10/28 00:01:27;;;;;;;6.93;3.83;;;19.20;72.00;;;;;;4784178;29;20413;-47
2022/10/28 00:04:00;;;;;;;10.20;5.15;;;19.20;72.00;;;;;;4782191;29;20050;-47
2022/10/28 00:06:30;;;;;;;7.60;4.13;;;19.10;72.00;;;;;;4778943;29;20442;-52
2022/10/28 00:09:06;;;;;;;7.05;4.03;;;19.20;72.10;;;;;;4783887;29;20058;-49
2022/10/28 00:11:42;;;;;;;8.85;4.70;;;19.20;72.00;;;;;;4784197;29;20074;-49
2022/10/28 00:14:12;;;;;;;11.82;4.72;;;19.10;72.10;;;;;;4783295;29;20039;-52
2022/10/28 00:16:45;;;;;;;8.43;4.18;;;19.10;72.10;;;;;;4780190;29;20130;-48
2022/10/28 00:19:14;;;;;;;7.22;4.40;;;19.10;72.10;;;;;;4783545;29;20138;-51
2022/10/28 00:21:42;;;;;;;11.32;4.85;;;19.10;72.10;;;;;;4784176;29;20425;-52
2022/10/28 00:24:11;;;;;;;7.15;4.32;;;19.10;72.10;;;;;;4770960;30;20634;-51
2022/10/28 00:26:41;;;;;;;7.93;4.85;;;19.10;72.00;;;;;;4776897;29;20130;-48
2022/10/28 00:29:16;;;;;;;8.25;4.05;;;19.20;71.90;;;;;;4784401;29;20047;-51
2022/10/28 00:31:46;;;;;;;11.68;4.72;;;19.10;71.90;;;;;;4783740;29;20047;-49
2022/10/28 00:34:16;;;;;;;7.40;4.65;;;19.10;71.90;;;;;;4779588;29;20073;-51
2022/10/28 00:36:46;;;;;;;7.82;4.47;;;19.10;71.90;;;;;;4784758;29;20077;-49
2022/10/28 00:39:20;;;;;;;8.85;4.30;;;19.10;71.70;;;;;;4783857;29;20047;-51
2022/10/28 00:42:02;;;;;;;8.10;3.90;;;19.10;71.60;;;;;;4783217;29;20109;-50
2022/10/28 00:44:57;;;;;;;7.85;3.88;;;19.00;72.10;;;;;;4777919;29;20131;-49
2022/10/28 00:48:00;;;;;;;13.55;5.63;;;19.00;71.50;;;;;;4786858;29;20035;-52
2022/10/28 00:50:50;;;;;;;9.13;4.10;;;18.90;71.30;;;;;;4749009;30;20059;-49
2022/10/28 00:53:27;;;;;;;9.27;4.63;;;18.90;71.00;;;;;;4789426;29;20058;-52
2022/10/28 00:55:58;;;;;;;6.65;4.15;;;18.80;71.00;;;;;;4783687;30;20172;-49
2022/10/28 00:58:28;;;;;;;8.13;3.75;;;18.70;71.00;;;;;;4787411;29;20569;-52
2022/10/28 01:00:55;;;;;;;9.23;4.30;;;18.60;71.00;;;;;;4786266;29;20402;-49
2022/10/28 01:03:22;;;;;;;5.57;3.20;;;18.60;71.10;;;;;;4780672;30;20053;-47
2022/10/28 01:05:56;;;;;;;6.05;4.10;;;18.50;71.10;;;;;;4785820;30;20055;-51
2022/10/28 01:08:25;;;;;;;10.63;5.28;;;18.50;71.30;;;;;;4786820;29;20052;-48
2022/10/28 01:11:30;;;;;;;6.13;3.80;;;18.40;71.30;;;;;;4785712;29;20679;-49
2022/10/28 01:14:16;;;;;;;6.07;4.43;;;18.30;71.50;;;;;;4784900;30;20391;-51
2022/10/28 01:17:02;;;;;;;10.35;5.00;;;18.30;71.60;;;;;;4786907;29;20054;-52
2022/10/28 01:19:52;;;;;;;8.32;4.50;;;18.20;71.50;;;;;;4782545;29;20058;-49
2022/10/28 01:22:33;;;;;;;9.50;4.22;;;18.20;72.00;;;;;;4782981;29;20043;-48
2022/10/28 01:25:24;;;;;;;16.23;4.82;;;18.10;71.60;;;;;;4786407;29;20057;-52
2022/10/28 01:28:17;;;;;;;6.68;3.45;;;18.10;71.80;;;;;;4786092;29;20441;-49
2022/10/28 01:31:05;;;;;;;6.97;3.72;;;18.00;71.30;;;;;;4783094;29;20614;-50
2022/10/28 01:33:46;;;;;;;11.40;4.65;;;17.90;71.40;;;;;;4782370;30;20139;-51
2022/10/28 01:36:40;;;;;;;12.02;6.45;;;17.90;71.40;;;;;;4787153;29;20577;-52
2022/10/28 01:39:44;;;;;;;8.10;3.63;;;17.80;71.40;;;;;;4783010;29;20043;-49
2022/10/28 01:43:01;;;;;;;7.13;3.92;;;17.80;71.60;;;;;;4776350;29;20053;-52
2022/10/28 01:45:37;;;;;;;9.55;4.13;;;17.70;72.10;;;;;;4786392;29;20102;-49
2022/10/28 01:48:21;;;;;;;7.95;4.00;;;17.70;72.40;;;;;;4786871;29;20051;-48
2022/10/28 01:51:15;;;;;;;9.75;4.18;;;17.70;72.90;;;;;;4781301;29;20127;-52
2022/10/28 01:53:47;;;;;;;8.70;4.35;;;17.70;73.10;;;;;;4786603;29;20043;-52
2022/10/28 01:56:16;;;;;;;;;;;17.60;73.20;;;;;;4787509;29;20051;-50
2022/10/28 01:58:46;;;;;;;8.38;3.78;;;17.70;73.30;;;;;;4785074;29;20044;-52
2022/10/28 02:01:13;;;;;;;7.93;4.50;;;17.60;72.90;;;;;;4777736;29;20043;-52
2022/10/28 02:03:40;;;;;;;8.13;4.55;;;17.60;73.20;;;;;;4785598;29;20723;-51
2022/10/28 02:06:17;;;;;;;9.82;3.75;;;17.60;73.30;;;;;;4786895;29;20059;-52
2022/10/28 02:09:01;;;;;;;7.72;4.47;;;17.60;73.80;;;;;;4782104;29;20058;-48
2022/10/28 02:11:52;;;;;;;8.30;4.03;;;17.60;74.00;;;;;;4786635;29;20050;-52
2022/10/28 02:14:41;;;;;;;7.10;4.22;;;17.60;73.90;;;;;;4767635;30;20097;-52
2022/10/28 02:17:15;;;;;;;11.13;5.82;;;17.60;74.10;;;;;;4778756;29;20135;-49
2022/10/28 02:20:09;;;;;;;6.55;3.80;;;17.60;73.90;;;;;;4780688;29;20051;-51
2022/10/28 02:22:57;;;;;;;8.77;5.00;;;17.70;74.10;;;;;;4792864;29;20078;-48
2022/10/28 02:25:45;;;;;;;9.15;3.78;;;17.70;74.40;;;;;;4785993;29;20055;-51
2022/10/28 02:28:27;;;;;;;9.98;4.47;;;17.70;74.20;;;;;;4782610;29;20049;-49
2022/10/28 02:31:02;;;;;;;10.25;4.65;;;17.70;74.10;;;;;;4785930;29;20412;-48
2022/10/28 02:33:35;;;;;;;6.80;4.25;;;17.70;74.10;;;;;;4784707;29;20104;-52
2022/10/28 02:36:08;;;;;;;9.88;4.80;;;17.70;74.00;;;;;;4781354;29;20047;-52
2022/10/28 02:38:54;;;;;;;10.25;4.30;;;17.70;74.00;;;;;;4783610;30;20140;-52
2022/10/28 02:41:33;;;;;;;9.80;4.22;;;17.70;74.00;;;;;;4785737;29;20123;-52
2022/10/28 02:44:11;;;;;;;11.30;4.53;;;17.70;74.20;;;;;;4783566;29;20051;-52
2022/10/28 02:46:41;;;;;;;9.60;4.40;;;17.70;74.00;;;;;;4782526;30;20116;-51
2022/10/28 02:49:12;;;;;;;8.68;4.13;;;17.70;73.90;;;;;;4785256;29;20426;-52
2022/10/28 02:51:49;;;;;;;6.63;3.88;;;17.70;73.70;;;;;;4782920;29;20123;-49
2022/10/28 02:54:28;;;;;;;8.13;4.28;;;17.80;73.70;;;;;;4784422;29;20047;-52
2022/10/28 02:57:04;;;;;;;7.78;4.90;;;17.80;74.50;;;;;;4783190;29;20051;-52
2022/10/28 02:59:36;;;;;;;9.38;4.15;;;17.80;73.80;;;;;;4784181;29;20054;-51
2022/10/28 03:02:03;;;;;;;9.70;3.90;;;17.70;73.50;;;;;;4786113;29;20504;-52
2022/10/28 03:04:30;;;;;;;8.73;4.07;;;17.70;73.60;;;;;;4782768;29;20556;-52
2022/10/28 03:07:04;;;;;;;10.57;4.40;;;17.70;73.50;;;;;;4785530;30;20093;-52
2022/10/28 03:09:33;;;;;;;7.03;4.60;;;17.70;73.40;;;;;;4784120;29;20129;-51
2022/10/28 03:11:59;;;;;;;7.85;3.50;;;17.70;73.30;;;;;;4785998;29;20044;-52
2022/10/28 03:14:30;;;;;;;7.60;4.25;;;17.70;73.20;;;;;;4778732;29;20468;-51
2022/10/28 03:17:00;;;;;;;8.60;4.93;;;17.70;73.20;;;;;;4785611;29;20062;-51
2022/10/28 03:19:29;;;;;;;10.05;4.20;;;17.70;73.10;;;;;;4785919;29;20147;-49
2022/10/28 03:22:08;;;;;;;6.43;4.03;;;17.60;73.10;;;;;;4785956;29;20130;-52
2022/10/28 03:24:40;;;;;;;9.73;4.95;;;17.60;73.20;;;;;;4780494;29;20126;-52
2022/10/28 03:27:06;;;;;;;8.80;4.63;;;17.60;73.20;;;;;;4785378;29;20054;-51
2022/10/28 03:29:42;;;;;;;8.80;4.60;;;17.60;73.30;;;;;;4783566;29;20527;-52
2022/10/28 03:32:12;;;;;;;7.55;3.85;;;17.60;73.30;;;;;;4779773;29;20122;-50
2022/10/28 03:34:41;;;;;;;11.55;4.55;;;17.50;73.20;;;;;;4779631;29;20130;-52
2022/10/28 03:37:14;;;;;;;5.72;4.40;;;17.50;73.20;;;;;;4784181;29;20047;-52
2022/10/28 03:39:45;;;;;;;10.00;4.07;;;17.50;73.20;;;;;;4784199;29;20143;-52
2022/10/28 03:42:15;;;;;;;13.15;5.13;;;17.50;73.20;;;;;;4781909;29;20076;-52
2022/10/28 03:44:41;;;;;;;7.75;4.53;;;17.40;73.20;;;;;;4783843;30;20230;-52
2022/10/28 03:47:09;;;;;;;6.05;3.67;;;17.40;73.10;;;;;;4785524;29;20508;-51
2022/10/28 03:49:35;;;;;;;7.43;4.68;;;17.40;73.20;;;;;;4778827;29;20051;-52
2022/10/28 03:52:03;;;;;;;5.85;3.50;;;17.40;72.80;;;;;;4783756;29;20055;-52
2022/10/28 03:54:29;;;;;;;9.88;3.50;;;17.40;72.50;;;;;;4783356;30;20047;-49
2022/10/28 03:56:56;;;;;;;6.68;3.28;;;17.30;72.40;;;;;;4785305;29;20048;-50
2022/10/28 03:59:25;;;;;;;10.00;4.90;;;17.30;72.30;;;;;;4783596;29;20451;-48
2022/10/28 04:01:52;;;;;;;8.25;3.92;;;17.30;72.20;;;;;;4779663;29;20056;-54
2022/10/28 04:04:21;;;;;;;7.93;3.70;;;17.20;72.10;;;;;;4783824;29;20054;-48
2022/10/28 04:06:57;;;;;;;8.40;3.30;;;17.20;72.20;;;;;;4798665;29;20082;-51
2022/10/28 04:09:26;;;;;;;8.60;4.10;;;17.20;72.00;;;;;;4778763;29;20052;-49
2022/10/28 04:11:55;;;;;;;5.70;3.03;;;17.10;71.70;;;;;;4779623;30;20051;-51
2022/10/28 04:14:22;;;;;;;9.23;3.92;;;17.10;71.80;;;;;;4784082;30;20058;-50
2022/10/28 04:16:49;;;;;;;6.10;3.40;;;17.00;71.80;;;;;;4786509;29;20074;-54
2022/10/28 04:19:21;;;;;;;6.15;3.97;;;17.00;71.90;;;;;;4817935;24;20050;-51
2022/10/28 04:21:48;;;;;;;7.80;4.18;;;17.00;72.00;;;;;;4822997;29;20061;-49
2022/10/28 04:24:14;;;;;;;9.77;4.13;;;16.90;72.00;;;;;;4805198;29;20054;-48
2022/10/28 04:26:46;;;;;;;8.10;4.32;;;16.90;72.10;;;;;;4804512;29;20070;-47
2022/10/28 04:29:12;;;;;;;6.57;4.30;;;16.90;72.30;;;;;;4802117;29;20042;-46
2022/10/28 04:31:41;;;;;;;6.47;3.55;;;16.80;72.40;;;;;;4804424;29;20054;-47
2022/10/28 04:34:13;;;;;;;7.88;3.78;;;16.80;72.40;;;;;;4805211;29;20662;-48
2022/10/28 04:36:42;;;;;;;9.75;4.18;;;16.80;72.50;;;;;;4804001;29;20050;-47
2022/10/28 04:39:09;;;;;;;8.10;4.00;;;16.70;72.60;;;;;;4803878;29;20424;-49
2022/10/28 04:41:35;;;;;;;7.97;4.38;;;16.80;73.30;;;;;;4802164;29;20500;-47
2022/10/28 04:44:02;;;;;;;9.80;4.05;;;16.70;72.70;;;;;;4804817;29;20055;-47
2022/10/28 04:46:29;;;;;;;6.85;3.35;;;16.70;72.70;;;;;;4808330;29;20043;-48
2022/10/28 04:48:55;;;;;;;4.85;3.85;;;16.70;72.70;;;;;;4800922;29;20420;-47
2022/10/28 04:51:22;;;;;;;6.95;4.35;;;16.70;72.80;;;;;;4805399;29;20121;-46
2022/10/28 04:53:48;;;;;;;11.48;4.60;;;16.70;73.00;;;;;;4805181;29;20412;-46
2022/10/28 04:56:15;;;;;;;10.10;5.00;;;16.70;73.00;;;;;;4808705;29;20039;-47
2022/10/28 04:58:42;;;;;;;5.82;4.07;;;16.60;72.90;;;;;;4804073;29;20074;-48
2022/10/28 05:01:09;;;;;;;9.77;4.57;;;16.70;73.00;;;;;;4803011;29;20404;-50
2022/10/28 05:03:36;;;;;;;5.93;4.35;;;16.60;72.90;;;;;;4801543;29;20085;-48
2022/10/28 05:06:03;;;;;;;8.52;4.25;;;16.60;73.00;;;;;;4804425;29;20047;-47
2022/10/28 05:08:29;;;;;;;10.88;4.05;;;16.60;72.90;;;;;;4805840;29;20155;-48
2022/10/28 05:10:56;;;;;;;8.95;4.32;;;16.60;72.70;;;;;;4805181;29;20046;-47
2022/10/28 05:13:23;;;;;;;7.20;4.63;;;16.60;72.70;;;;;;4804848;29;20046;-49
2022/10/28 05:15:50;;;;;;;9.82;4.60;;;16.60;72.70;;;;;;4800136;29;20051;-48
2022/10/28 05:18:17;;;;;;;5.38;4.00;;;16.60;72.70;;;;;;4800778;29;20078;-47
2022/10/28 05:20:43;;;;;;;6.35;3.85;;;16.60;72.60;;;;;;4803510;29;20062;-48
2022/10/28 05:23:11;;;;;;;6.45;3.50;;;16.50;72.40;;;;;;4807033;29;20047;-47
2022/10/28 05:25:37;;;;;;;4.70;3.92;;;16.60;72.30;;;;;;4794582;29;20063;-51
2022/10/28 05:28:04;;;;;;;8.43;3.60;;;16.50;72.20;;;;;;4799218;29;20057;-51
2022/10/28 05:30:31;;;;;;;7.22;4.43;;;16.50;72.30;;;;;;4799759;29;20090;-52
2022/10/28 05:33:00;;;;;;;7.63;3.25;;;16.50;72.30;;;;;;4801375;29;20047;-48
2022/10/28 05:35:31;;;;;;;12.52;3.83;;;16.40;72.20;;;;;;4803517;29;20054;-49
2022/10/28 05:37:57;;;;;;;7.50;4.47;;;16.40;72.20;;;;;;4818405;29;20171;-50
2022/10/28 05:40:24;;;;;;;6.05;4.30;;;16.40;72.30;;;;;;4802783;29;20416;-48
2022/10/28 05:42:51;;;;;;;6.88;3.35;;;16.40;72.60;;;;;;4799997;29;20126;-52
2022/10/28 05:45:18;;;;;;;4.82;3.55;;;16.40;72.60;;;;;;4801331;29;20053;-50
2022/10/28 05:47:47;;;;;;;7.22;3.50;;;16.40;72.60;;;;;;4803074;29;20107;-52
2022/10/28 05:50:16;;;;;;;7.85;3.47;;;16.30;72.50;;;;;;4804040;29;20062;-51
2022/10/28 05:52:47;;;;;;;6.03;3.40;;;16.30;72.40;;;;;;4798578;29;20559;-47
2022/10/28 05:55:17;;;;;;;6.87;3.90;;;16.30;72.40;;;;;;4803920;29;20566;-49
2022/10/28 05:57:45;;;;;;;6.20;4.22;;;16.30;72.40;;;;;;4815604;29;20069;-51
2022/10/28 06:00:15;;;;;;;7.32;4.57;;;16.20;72.30;;;;;;4796717;29;20568;-50
2022/10/28 06:02:42;;;;;;;7.05;4.35;;;16.20;72.40;;;;;;4800563;29;20055;-52
2022/10/28 06:05:09;;;;;;;7.45;4.95;;;16.20;72.50;;;;;;4799875;29;20103;-51
2022/10/28 06:07:37;;;;;;;8.20;4.90;;;16.20;72.80;;;;;;4803267;29;20054;-50
2022/10/28 06:10:07;;;;;;;8.70;4.15;;;16.20;73.00;;;;;;4803653;29;20050;-46
2022/10/28 06:12:34;;;;;;;10.15;6.60;;;16.20;73.30;;;;;;4802229;29;20061;-50
2022/10/28 06:15:07;;;;;;;10.43;4.70;;;16.20;73.60;;;;;;4803835;29;20053;-50
2022/10/28 06:17:33;;;;;;;8.52;5.00;;;16.20;73.90;;;;;;4804330;29;20065;-47
2022/10/28 06:20:00;;;;;;;8.48;5.72;;;16.20;74.00;;;;;;4810672;29;20058;-48
2022/10/28 06:22:26;;;;;;;7.93;5.10;;;16.20;74.10;;;;;;4798976;29;20062;-48
2022/10/28 06:24:53;;;;;;;7.85;5.00;;;16.30;74.20;;;;;;4804028;29;20061;-49
2022/10/28 06:27:20;;;;;;;8.95;5.68;;;16.30;74.00;;;;;;4803227;29;20049;-51
2022/10/28 06:29:49;;;;;;;8.05;4.80;;;16.30;74.00;;;;;;4802346;29;20062;-51
2022/10/28 06:32:16;;;;;;;8.95;4.35;;;16.30;74.00;;;;;;4801044;29;20126;-52
2022/10/28 06:34:42;;;;;;;5.88;4.38;;;16.40;74.00;;;;;;4804050;29;20069;-51
2022/10/28 06:37:09;;;;;;;10.23;5.32;;;16.30;73.80;;;;;;4803700;29;20047;-50
2022/10/28 06:39:38;;;;;;;11.95;4.47;;;16.30;73.60;;;;;;4801806;29;20112;-51
2022/10/28 06:42:05;;;;;;;8.32;4.82;;;16.40;73.50;;;;;;4797609;29;20065;-51
2022/10/28 06:44:31;;;;;;;7.05;4.40;;;16.30;73.50;;;;;;4802278;29;20521;-48
2022/10/28 06:46:59;;;;;;;11.10;4.30;;;16.30;73.50;;;;;;4801970;29;20524;-47
2022/10/28 06:49:27;;;;;;;11.00;5.20;;;16.30;73.50;;;;;;4801174;29;20053;-51
2022/10/28 06:51:53;;;;;;;10.70;5.63;;;16.30;73.60;;;;;;4803678;29;20529;-48
2022/10/28 06:54:20;;;;;;;11.23;5.32;;;16.30;73.70;;;;;;4808747;29;20077;-51
2022/10/28 06:56:47;;;;;;;7.28;4.50;;;16.40;74.10;;;;;;4799970;29;20079;-51
2022/10/28 06:59:13;;;;;;;11.93;4.82;;;16.40;74.10;;;;;;4797584;29;20057;-51
2022/10/28 07:01:40;;;;;;;8.65;4.65;;;16.40;74.20;;;;;;4801316;29;20137;-50
2022/10/28 07:04:12;;;;;;;9.25;6.05;;;16.40;74.30;;;;;;4803766;29;20585;-49
2022/10/28 07:06:40;;;;;;;8.38;5.90;;;16.50;74.70;;;;;;4800826;29;20119;-52
2022/10/28 07:09:11;;;;;;;10.35;6.18;;;16.50;74.70;;;;;;4800410;29;20042;-50
2022/10/28 07:11:38;;;;;;;9.52;6.28;;;16.50;74.80;;;;;;4802250;29;20038;-48
2022/10/28 07:14:05;;;;;;;11.85;6.00;;;16.60;74.80;;;;;;4802654;29;20057;-50
2022/10/28 07:16:32;;;;;;;9.68;5.38;;;16.60;74.90;;;;;;4800302;29;20059;-50
2022/10/28 07:18:58;;;;;;;8.85;5.85;;;16.60;74.80;;;;;;4799486;29;20051;-52
2022/10/28 07:21:27;;;;;;;9.32;5.53;;;16.70;74.90;;;;;;4802171;29;20050;-51
2022/10/28 07:23:55;;;;;;;8.40;5.35;;;16.70;74.90;;;;;;4803582;29;20050;-48
2022/10/28 07:26:22;;;;;;;10.82;6.43;;;16.70;74.90;;;;;;4802219;29;20505;-49
2022/10/28 07:28:49;;;;;;;7.97;4.90;;;16.80;75.00;;;;;;4800162;29;20451;-51
2022/10/28 07:31:17;;;;;;;9.02;5.35;;;16.80;74.80;;;;;;4802171;29;20047;-49
2022/10/28 07:33:44;;;;;;;9.27;5.55;;;16.80;74.90;;;;;;4802665;29;20468;-51
2022/10/28 07:36:10;;;;;;;10.48;5.72;;;16.90;75.10;;;;;;4798760;29;20053;-51
2022/10/28 07:38:37;;;;;;;8.27;5.45;;;16.90;75.00;;;;;;4801841;29;20061;-51
2022/10/28 07:41:05;;;;;;;11.52;5.75;;;16.90;75.00;;;;;;4802370;29;20043;-52
2022/10/28 07:43:37;;;;;;;12.45;6.13;;;17.00;75.10;;;;;;4801725;29;20050;-51
2022/10/28 07:46:06;;;;;;;9.40;5.28;;;17.00;75.10;;;;;;4800339;29;20043;-51
2022/10/28 07:48:34;;;;;;;9.25;5.50;;;17.10;75.30;;;;;;4800582;29;20424;-48
2022/10/28 07:51:02;;;;;;;10.05;5.88;;;17.10;75.40;;;;;;4802275;29;20062;-51
2022/10/28 07:53:29;;;;;;;8.57;5.13;;;17.10;75.60;;;;;;4806097;29;20687;-49
2022/10/28 07:56:04;;;;;;;14.90;5.82;;;17.20;75.80;;;;;;4794857;29;20055;-51
2022/10/28 07:58:31;;;;;;;10.68;5.75;;;17.20;75.90;;;;;;4801870;29;20699;-51
2022/10/28 08:01:07;;;;;;;10.95;5.40;;;17.30;75.90;;;;;;4802277;29;20067;-52
2022/10/28 08:03:35;;;;;;;10.82;5.75;;;17.30;75.80;;;;;;4799403;29;20047;-51
2022/10/28 08:06:11;;;;;;;10.52;5.70;;;17.30;75.80;;;;;;4801727;29;20047;-49
2022/10/28 08:08:38;;;;;;;9.88;5.60;;;17.40;76.20;;;;;;4802309;29;20049;-52
2022/10/28 08:11:12;;;;;;;12.63;6.28;;;17.40;75.70;;;;;;4802176;29;20054;-48
2022/10/28 08:13:39;;;;;;;11.18;5.25;;;17.50;76.30;;;;;;4798848;29;20046;-49
2022/10/28 08:16:07;;;;;;;8.27;5.43;;;17.50;76.20;;;;;;4798484;29;20055;-51
2022/10/28 08:18:35;;;;;;;9.95;5.50;;;17.60;76.40;;;;;;4801705;29;20129;-52
2022/10/28 08:21:03;;;;;;;8.27;5.05;;;17.60;76.40;;;;;;4801549;29;20047;-52
2022/10/28 08:23:29;;;;;;;10.02;5.82;;;17.60;76.40;;;;;;4800297;29;20539;-50
2022/10/28 08:25:56;;;;;;;12.38;6.60;;;17.70;76.60;;;;;;4798984;29;20057;-52
2022/10/28 08:28:25;;;;;;;18.10;6.55;;;17.80;76.90;;;;;;4800036;29;20041;-52
2022/10/28 08:30:52;;;;;;;10.07;5.45;;;17.80;76.90;;;;;;4801191;29;20054;-51
2022/10/28 08:33:38;;;;;;;10.65;5.50;;;17.90;77.00;;;;;;4791892;29;20047;-51
2022/10/28 08:36:06;;;;;;;9.30;5.53;;;17.90;77.10;;;;;;4803240;29;20727;-47
2022/10/28 08:38:33;;;;;;;14.25;5.90;;;18.00;77.10;;;;;;4801815;29;20162;-52
2022/10/28 08:41:18;;;;;;;16.15;6.70;;;18.10;77.00;;;;;;4795712;29;20047;-49
2022/10/28 08:43:50;;;;;;;8.23;5.25;;;18.20;77.20;;;;;;4801268;29;20118;-48
2022/10/28 08:46:50;;;;;;;12.00;5.68;;;18.30;77.30;;;;;;4801600;29;20111;-50
2022/10/28 08:49:20;;;;;;;9.73;5.22;;;18.40;77.70;;;;;;4797147;29;20046;-48
2022/10/28 08:51:47;;;;;;;10.27;6.03;;;18.50;77.30;;;;;;4797988;29;20433;-47
2022/10/28 08:54:19;;;;;;;19.80;6.43;;;18.60;77.20;;;;;;4800211;29;20562;-48
2022/10/28 08:56:47;;;;;;;12.15;6.32;;;18.70;77.80;;;;;;4801819;29;20126;-48
2022/10/28 08:59:29;;;;;;;12.48;4.47;;;18.80;77.00;;;;;;4799419;29;20046;-50
2022/10/28 09:01:59;;;;;;;10.02;5.15;;;18.90;77.10;;;;;;4800870;29;20050;-51
2022/10/28 09:04:39;;;;;;;11.45;5.18;;;19.00;76.80;;;;;;4802368;29;20150;-51
2022/10/28 09:07:19;;;;;;;12.65;5.93;;;19.10;76.70;;;;;;4815494;29;20047;-52
2022/10/28 09:09:51;;;;;;;7.70;5.30;;;19.20;76.70;;;;;;4796856;29;20059;-51
2022/10/28 09:12:30;;;;;;;13.63;5.32;;;19.30;76.30;;;;;;4801419;29;20390;-51
2022/10/28 09:15:12;;;;;;;11.43;5.13;;;19.40;76.20;;;;;;4805175;29;20038;-51
2022/10/28 09:17:56;;;;;;;8.80;4.75;;;19.50;76.10;;;;;;4812364;29;20564;-51
2022/10/28 09:20:47;;;;;;;11.50;5.30;;;19.60;76.10;;;;;;4795379;29;20050;-51
2022/10/28 09:23:13;;;;;;;13.90;5.30;;;19.60;75.80;;;;;;4804365;29;20047;-52
2022/10/28 09:25:51;;;;;;;13.27;5.18;;;19.70;75.60;;;;;;4805154;29;20659;-52
2022/10/28 09:28:30;;;;;;;11.02;5.15;;;19.90;75.40;;;;;;4799213;29;20054;-48
2022/10/28 09:31:14;;;;;;;11.63;5.57;;;20.00;75.20;;;;;;4799161;29;20534;-50
2022/10/28 09:33:52;;;;;;;11.00;5.15;;;20.10;74.90;;;;;;4805179;29;20057;-52
2022/10/28 09:36:46;;;;;;;8.27;4.40;;;20.20;74.70;;;;;;4804444;29;20051;-51
2022/10/28 09:39:18;;;;;;;10.00;4.75;;;20.30;74.20;;;;;;4801671;29;20142;-51
2022/10/28 09:41:52;;;;;;;7.88;5.15;;;20.40;74.20;;;;;;4802398;29;20065;-50
2022/10/28 09:44:35;;;;;;;10.27;4.90;;;20.50;74.20;;;;;;4804964;29;20145;-51
2022/10/28 09:47:11;;;;;;;9.60;4.82;;;20.60;73.90;;;;;;4804758;29;20046;-51
2022/10/28 09:49:38;;;;;;;13.38;5.65;;;20.70;73.80;;;;;;4800206;29;20050;-48
2022/10/28 09:52:12;;;;;;;10.68;4.57;;;20.80;73.50;;;;;;4807281;29;20069;-51
2022/10/28 09:54:49;;;;;;;11.25;4.85;;;20.90;73.00;;;;;;4809206;29;20091;-52
2022/10/28 09:57:16;;;;;;;7.95;4.70;;;21.00;73.00;;;;;;4806771;29;20054;-48
2022/10/28 09:59:43;;;;;;;9.18;4.43;;;21.10;72.50;;;;;;4803503;29;20055;-51
2022/10/28 10:02:31;;;;;;;10.98;5.30;;;21.10;72.20;;;;;;4803654;29;20440;-47
2022/10/28 10:05:00;;;;;;;13.45;5.40;;;21.20;71.60;;;;;;4802065;29;20057;-52
2022/10/28 10:07:39;;;;;;;14.30;5.60;;;21.30;71.50;;;;;;4799862;29;20121;-53
2022/10/28 10:10:14;;;;;;;13.23;4.90;;;21.40;71.20;;;;;;4803145;29;20045;-52
2022/10/28 10:12:42;;;;;;;11.77;5.53;;;21.40;71.10;;;;;;4803276;29;20126;-50
2022/10/28 10:15:18;;;;;;;9.32;5.00;;;21.50;71.30;;;;;;4803310;29;20043;-48
2022/10/28 10:17:46;;;;;;;10.88;5.05;;;21.50;71.10;;;;;;4799861;29;20667;-49
2022/10/28 10:20:18;;;;;;;14.95;4.70;;;21.60;71.10;;;;;;4800673;29;20047;-52
2022/10/28 10:22:47;;;;;;;11.68;5.05;;;21.60;71.00;;;;;;4803322;29;20448;-51
2022/10/28 10:25:19;;;;;;;12.60;4.53;;;21.70;70.90;;;;;;4799095;29;20057;-50
2022/10/28 10:27:56;;;;;;;11.23;4.80;;;21.70;70.60;;;;;;4802481;29;20476;-51
2022/10/28 10:30:45;;;;;;;15.77;5.05;;;21.80;70.40;;;;;;4802507;29;20042;-51
2022/10/28 10:33:22;;;;;;;14.35;5.18;;;21.80;70.80;;;;;;4800885;29;20050;-51
2022/10/28 10:35:55;;;;;;;12.05;4.82;;;21.90;70.70;;;;;;4794528;29;20061;-49
2022/10/28 10:38:27;;;;;;;13.32;4.95;;;21.90;70.60;;;;;;4802811;29;20772;-51
2022/10/28 10:40:53;;;;;;;10.63;4.75;;;22.00;70.60;;;;;;4801665;29;20413;-51
2022/10/28 10:43:22;;;;;;;14.07;5.15;;;22.00;70.40;;;;;;4794210;29;20134;-53
2022/10/28 10:46:01;;;;;;;10.45;4.75;;;22.10;70.40;;;;;;4795437;29;20668;-48
2022/10/28 10:48:29;;;;;;;9.55;5.00;;;22.20;70.20;;;;;;4790668;29;20063;-52
2022/10/28 10:50:55;;;;;;;8.57;4.72;;;22.20;70.40;;;;;;4801355;29;20047;-51
2022/10/28 10:53:25;;;;;;;10.27;4.57;;;22.30;70.40;;;;;;4803621;29;20053;-52
2022/10/28 10:56:00;;;;;;;11.38;5.28;;;22.40;70.50;;;;;;4804277;29;20046;-49
2022/10/28 10:58:35;;;;;;;9.45;4.60;;;22.50;70.40;;;;;;4800429;29;20667;-50
2022/10/28 11:01:06;;;;;;;9.77;4.18;;;22.60;70.00;;;;;;4815020;24;20054;-49
2022/10/28 11:03:37;;;;;;;9.00;4.78;;;22.70;70.00;;;;;;4796783;29;20103;-49
2022/10/28 11:06:06;;;;;;;8.00;4.65;;;22.70;69.20;;;;;;4804679;29;20046;-53
2022/10/28 11:09:00;;;;;;;8.05;4.47;;;22.80;69.00;;;;;;4801823;29;20051;-53
2022/10/28 11:11:37;;;;;;;15.35;5.00;;;22.90;68.10;;;;;;4801711;29;20047;-52
2022/10/28 11:14:12;;;;;;;9.77;4.55;;;23.00;67.40;;;;;;4800373;29;20059;-52
2022/10/28 11:16:52;;;;;;;9.77;4.22;;;23.00;67.90;;;;;;4802259;29;20050;-53
2022/10/28 11:19:27;;;;;;;11.35;4.43;;;23.10;67.20;;;;;;4801964;29;20122;-51
2022/10/28 11:22:20;;;;;;;10.80;4.40;;;23.20;66.80;;;;;;4798387;29;20087;-52
2022/10/28 11:25:29;;;;;;;8.40;3.83;;;23.20;66.00;;;;;;4799999;29;20086;-51
2022/10/28 11:28:33;;;;;;;11.13;3.65;;;23.30;65.80;;;;;;4802282;29;20117;-52
2022/10/28 11:31:13;;;;;;;14.13;5.25;;;23.40;65.60;;;;;;4796236;29;20078;-51
2022/10/28 11:34:08;;;;;;;11.57;3.80;;;23.50;64.90;;;;;;4793831;29;20124;-53
2022/10/28 11:37:15;;;;;;;9.43;4.00;;;23.50;64.70;;;;;;4802130;29;20129;-50
2022/10/28 11:39:41;;;;;;;11.05;3.80;;;23.60;64.50;;;;;;4779739;29;20453;-46
2022/10/28 11:42:29;;;;;;;8.85;3.95;;;23.70;64.40;;;;;;4795004;29;20141;-48
2022/10/28 11:45:18;;;;;;;6.97;3.58;;;23.80;63.00;;;;;;4814635;29;20119;-50
2022/10/28 11:47:59;;;;;;;12.55;4.30;;;23.90;63.10;;;;;;4794934;29;20046;-54
2022/10/28 11:50:34;;;;;;;8.52;3.83;;;24.00;62.00;;;;;;4801387;29;20080;-53
2022/10/28 11:53:22;;;;;;;10.07;4.00;;;24.10;62.40;;;;;;4801983;29;20133;-49
2022/10/28 11:56:07;;;;;;;9.57;3.53;;;24.20;62.10;;;;;;4798234;29;20054;-50
2022/10/28 11:58:52;;;;;;;9.73;3.25;;;24.40;61.00;;;;;;4801698;29;20061;-51
2022/10/28 12:01:27;;;;;;;6.93;3.50;;;24.50;60.40;;;;;;4800897;29;20046;-52
2022/10/28 12:04:04;;;;;;;8.05;3.72;;;24.60;59.80;;;;;;4801114;29;20066;-51
2022/10/28 12:06:53;;;;;;;9.18;3.78;;;24.70;58.90;;;;;;4800449;29;20691;-49
2022/10/28 12:09:29;;;;;;;7.28;3.50;;;24.90;58.10;;;;;;4802143;29;20046;-51
2022/10/28 12:12:25;;;;;;;12.60;3.60;;;24.90;57.30;;;;;;4801450;29;20491;-50
2022/10/28 12:15:15;;;;;;;11.77;3.67;;;25.10;57.40;;;;;;4799056;29;20496;-52
2022/10/28 12:17:59;;;;;;;9.25;3.38;;;25.20;56.80;;;;;;4798737;29;20045;-53
2022/10/28 12:20:53;;;;;;;10.18;3.03;;;25.30;56.30;;;;;;4799395;29;20134;-49
2022/10/28 12:23:23;;;;;;;8.95;3.05;;;25.40;56.00;;;;;;4804450;29;20063;-51
2022/10/28 12:25:54;;;;;;;10.93;4.45;;;25.40;56.20;;;;;;4803947;29;20055;-50
2022/10/28 12:28:23;;;;;;;9.93;3.05;;;25.50;55.80;;;;;;4798177;29;20047;-53
2022/10/28 12:30:52;;;;;;;8.45;3.28;;;25.60;55.20;;;;;;4808553;29;20508;-53
2022/10/28 12:33:24;;;;;;;7.75;3.00;;;25.60;55.80;;;;;;4806771;29;20130;-49
2022/10/28 12:36:03;;;;;;;11.60;3.42;;;25.70;54.70;;;;;;4802133;29;20066;-48
2022/10/28 12:38:45;;;;;;;7.65;2.70;;;25.70;54.00;;;;;;4799582;29;20099;-50
2022/10/28 12:41:20;;;;;;;8.35;2.95;;;25.80;54.40;;;;;;4803373;29;20073;-52
2022/10/28 12:44:03;;;;;;;6.85;2.95;;;25.80;54.20;;;;;;4805295;29;20073;-51
2022/10/28 12:47:00;;;;;;;4.80;3.10;;;25.80;53.30;;;;;;4800312;29;20073;-52
2022/10/28 12:50:01;;;;;;;7.13;3.50;;;25.90;53.40;;;;;;4803528;29;20058;-53
2022/10/28 12:52:43;;;;;;;6.75;3.70;;;25.90;54.00;;;;;;4808089;29;20054;-50
2022/10/28 12:55:12;;;;;;;9.30;3.38;;;25.90;53.50;;;;;;4801823;29;20057;-53
2022/10/28 12:57:50;;;;;;;10.02;3.58;;;25.90;53.70;;;;;;4801749;29;20133;-52
2022/10/28 13:00:28;;;;;;;10.38;3.60;;;25.90;53.50;;;;;;4805644;29;20046;-52
2022/10/28 13:03:01;;;;;;;9.43;3.13;;;25.90;52.80;;;;;;4810092;29;20050;-53
2022/10/28 13:05:45;;;;;;;15.82;4.18;;;25.90;52.70;;;;;;4802747;29;20407;-49
2022/10/28 13:08:29;;;;;;;13.75;3.20;;;26.00;52.00;;;;;;4805087;29;20096;-53
2022/10/28 13:11:19;;;;;;;14.10;4.30;;;26.00;52.80;;;;;;4806406;29;20481;-52
2022/10/28 13:13:52;;;;;;;11.80;4.28;;;26.10;52.50;;;;;;4803126;29;20067;-49
2022/10/28 13:16:37;;;;;;;6.93;3.10;;;26.00;52.70;;;;;;4802574;29;20574;-53
2022/10/28 13:19:16;;;;;;;10.40;3.47;;;26.10;52.60;;;;;;4806371;29;20069;-49